Hovedside
METAR-TAF:

METAR-TAF

Lufthavner :

Umeå, Sverige

Umeå lufthavn

breddegrad: 63-48N, lengdegrad: 020-17E, høyde over havet: 7 m

Gjeldene værobservasjon

Denne rapporten ble laget for 44 minutter siden, klokken 09:50 UTC
Vind 8 kt fra Sør
Temperatur 11°C
Luftfuktighet 100%
Trykk 987 hPa
Sikt 10 km eller mer
Brutte skyer i en høyde av 300 ft
Overskyet i en høyde av 500 ft

METAR: ESNU 250950Z 18008KT 9999 BKN003 OVC005 11/11 Q0987

Tid: 12:34 (10:34 UTC)


TAF: fraværende

Værobservasjoner og værvarsel for over 4000 flyplasser (METAR- og TAF-rapporter).

Tilgjengelige stasjoner er representert av de røde og gule prikkene på kartet.

Hold musepekeren over prikken for å se navnet på stasjonen.

Klikk så for å se værobservasjoner og -varsler.

For å forandre kartet kan du klikke på den grønne knappen med svart kryss for å zoome inn, på den grønne knappen med strek for å zoome ut, eller på de grønne pilene for å se tilstøtende kart.


METAR-TAF: